Time;durP1;ratioP1;P1;durP2;ratioP2;P2;SDS_P1;SDS_P2;PMS_P1;PMS_P2;Temp;Humidity;BMP_temperature;BMP_pressure;BME280_temperature;BME280_humidity;BME280_pressure;Samples;Min_cycle;Max_cycle;Signal;HPM_P1;HPM_P2
2021/12/05 00:19:15;;;;;;;6.95;4.82;;;;;;;;;;5037583;28;20033;-82
2021/12/05 00:24:16;;;;;;;7.22;4.97;;;;;;;;;;5036371;28;20091;-82
2021/12/05 00:26:49;;;;;;;7.85;5.15;;;;;;;;;;5019062;28;20033;-81
2021/12/05 00:29:25;;;;;;;9.15;5.70;;;;;;;;;;5036855;28;20082;-83
2021/12/05 00:47:35;;;;;;;8.27;5.03;;;;;;;;;;5037098;28;20052;-82
2021/12/05 00:50:21;;;;;;;8.93;6.07;;;;;;;;;;5018260;28;20028;-83
2021/12/05 00:55:42;;;;;;;9.52;5.70;;;;;;;;;;5036745;28;20032;-81
2021/12/05 00:59:07;;;;;;;9.98;5.82;;;;;;;;;;5018412;28;20036;-82
2021/12/05 01:04:31;;;;;;;8.10;5.93;;;;;;;;;;5035685;28;20129;-81
2021/12/05 01:15:14;;;;;;;8.43;4.82;;;;;;;;;;5035957;28;20366;-82
2021/12/05 01:17:42;;;;;;;;;;;;;;;;;;5033282;28;20042;-81
2021/12/05 01:20:12;;;;;;;7.78;5.20;;;;;;;;;;5018423;28;19920;-82
2021/12/05 01:22:43;;;;;;;9.55;5.90;;;;;;;;;;5017459;28;20540;-81
2021/12/05 01:25:22;;;;;;;8.68;5.97;;;;;;;;;;5035914;28;20036;-82
2021/12/05 01:28:07;;;;;;;10.50;6.55;;;;;;;;;;5017985;28;20112;-82
2021/12/05 01:30:51;;;;;;;9.27;5.95;;;;;;;;;;5035689;28;20032;-82
2021/12/05 01:33:29;;;;;;;;;;;;;;;;;;5017998;28;20021;-81
2021/12/05 01:36:07;;;;;;;11.35;6.18;;;;;;;;;;5035183;28;20410;-82
2021/12/05 01:41:49;;;;;;;9.73;6.30;;;;;;;;;;5035340;28;20024;-82
2021/12/05 01:47:27;;;;;;;13.00;6.22;;;;;;;;;;5036879;28;20463;-81
2021/12/05 01:50:10;;;;;;;9.63;6.68;;;;;;;;;;5036176;28;20406;-80
2021/12/05 01:52:52;;;;;;;8.93;6.13;;;;;;;;;;5036112;28;20403;-82
2021/12/05 01:55:48;;;;;;;10.45;7.00;;;;;;;;;;5036698;28;20013;-81
2021/12/05 02:01:05;;;;;;;10.15;6.68;;;;;;;;;;5035167;28;20510;-81
2021/12/05 02:07:52;;;;;;;8.75;6.50;;;;;;;;;;5034853;28;20021;-83
2021/12/05 02:09:41;;;;;;;12.15;6.97;;;;;;;;;;5034805;28;20037;-84
2021/12/05 02:31:32;;;;;;;8.15;5.13;;;;;;;;;;5035805;28;20028;-82
2021/12/05 02:34:17;;;;;;;6.68;4.82;;;;;;;;;;5035110;28;20398;-81
2021/12/05 02:37:04;;;;;;;6.05;4.13;;;;;;;;;;5034958;28;20026;-83
2021/12/05 02:39:38;;;;;;;6.68;4.25;;;;;;;;;;5035543;28;20429;-82
2021/12/05 02:42:13;;;;;;;5.72;4.07;;;;;;;;;;5035106;28;20029;-81
2021/12/05 02:44:41;;;;;;;5.45;4.07;;;;;;;;;;5017393;28;20022;-82
2021/12/05 02:47:13;;;;;;;5.63;4.10;;;;;;;;;;5035400;28;20037;-81
2021/12/05 02:49:43;;;;;;;5.28;4.07;;;;;;;;;;5016921;28;20032;-82
2021/12/05 02:52:20;;;;;;;4.90;3.53;;;;;;;;;;5017071;28;20036;-82
2021/12/05 02:54:50;;;;;;;4.97;3.67;;;;;;;;;;5034783;28;20056;-82
2021/12/05 02:57:19;;;;;;;4.50;3.03;;;;;;;;;;5016856;28;20030;-83
2021/12/05 02:59:51;;;;;;;5.50;3.35;;;;;;;;;;5034653;28;20037;-82
2021/12/05 03:02:18;;;;;;;4.82;3.22;;;;;;;;;;5034377;28;20172;-80
2021/12/05 03:04:47;;;;;;;6.40;3.80;;;;;;;;;;5016485;28;20026;-83
2021/12/05 03:07:17;;;;;;;4.68;3.53;;;;;;;;;;5016602;28;20030;-82
2021/12/05 03:09:43;;;;;;;5.30;3.67;;;;;;;;;;5017139;28;20053;-83
2021/12/05 03:12:11;;;;;;;4.95;3.22;;;;;;;;;;5034446;28;20088;-83
2021/12/05 03:14:38;;;;;;;4.65;3.67;;;;;;;;;;5035004;28;20059;-83
2021/12/05 03:17:04;;;;;;;5.57;3.88;;;;;;;;;;5016787;28;20116;-83
2021/12/05 03:19:32;;;;;;;6.05;4.28;;;;;;;;;;5016171;28;20083;-81
2021/12/05 03:21:57;;;;;;;5.60;4.03;;;;;;;;;;5034630;28;20467;-80
2021/12/05 03:24:24;;;;;;;5.45;4.13;;;;;;;;;;5016474;28;20117;-81
2021/12/05 03:26:52;;;;;;;5.25;3.97;;;;;;;;;;5037535;28;20117;-81
2021/12/05 03:29:20;;;;;;;5.13;3.60;;;;;;;;;;5037975;28;20398;-82
2021/12/05 03:31:46;;;;;;;5.18;3.53;;;;;;;;;;5037417;28;20068;-81
2021/12/05 03:34:15;;;;;;;5.07;3.70;;;;;;;;;;5037546;28;20018;-82
2021/12/05 03:36:42;;;;;;;7.75;3.47;;;;;;;;;;5019443;28;20372;-82
2021/12/05 03:39:09;;;;;;;6.80;3.58;;;;;;;;;;5037097;28;20025;-82
2021/12/05 03:41:36;;;;;;;3.95;3.25;;;;;;;;;;5037529;28;20030;-83
2021/12/05 03:44:03;;;;;;;5.13;3.30;;;;;;;;;;5037456;28;20390;-81
2021/12/05 03:46:28;;;;;;;6.20;3.17;;;;;;;;;;5037129;28;20052;-82
2021/12/05 03:48:59;;;;;;;6.00;3.08;;;;;;;;;;5037486;28;20475;-82
2021/12/05 03:51:27;;;;;;;3.65;2.38;;;;;;;;;;5037640;28;20104;-81
2021/12/05 03:53:54;;;;;;;4.13;2.97;;;;;;;;;;5036996;28;20022;-80
2021/12/05 03:56:20;;;;;;;5.75;3.10;;;;;;;;;;5037371;28;20072;-80
2021/12/05 03:58:47;;;;;;;3.88;2.67;;;;;;;;;;5019450;28;20048;-83
2021/12/05 04:01:14;;;;;;;5.25;3.20;;;;;;;;;;5036895;28;20465;-82
2021/12/05 04:03:41;;;;;;;5.93;2.70;;;;;;;;;;5019202;28;20037;-81
2021/12/05 04:06:09;;;;;;;4.32;2.80;;;;;;;;;;5019686;28;20037;-80
2021/12/05 04:08:35;;;;;;;4.60;2.60;;;;;;;;;;5037512;28;20029;-82
2021/12/05 04:11:14;;;;;;;6.57;3.40;;;;;;;;;;5019196;28;20053;-82
2021/12/05 04:13:40;;;;;;;4.90;2.83;;;;;;;;;;5036767;28;20410;-82
2021/12/05 04:16:07;;;;;;;4.90;2.88;;;;;;;;;;5045753;28;20037;-83
2021/12/05 04:18:34;;;;;;;5.50;2.80;;;;;;;;;;5038985;28;20089;-80
2021/12/05 04:21:00;;;;;;;3.10;2.25;;;;;;;;;;5056328;28;20021;-81
2021/12/05 04:23:26;;;;;;;4.65;2.63;;;;;;;;;;5037323;28;20462;-82
2021/12/05 04:25:52;;;;;;;4.72;2.72;;;;;;;;;;5018438;28;20438;-82
2021/12/05 04:28:19;;;;;;;3.22;2.55;;;;;;;;;;5018587;28;20037;-82
2021/12/05 04:30:45;;;;;;;5.60;2.47;;;;;;;;;;5035901;28;20029;-82
2021/12/05 04:33:12;;;;;;;4.25;2.40;;;;;;;;;;5036098;28;20028;-82
2021/12/05 04:35:38;;;;;;;6.35;2.35;;;;;;;;;;5036196;28;20021;-81
2021/12/05 04:38:03;;;;;;;4.70;2.22;;;;;;;;;;5035258;28;20040;-82
2021/12/05 04:40:33;;;;;;;4.10;2.33;;;;;;;;;;5018222;28;20029;-83
2021/12/05 04:42:59;;;;;;;4.05;2.25;;;;;;;;;;5036412;28;20032;-82
2021/12/05 04:45:27;;;;;;;4.07;2.40;;;;;;;;;;5019093;28;20040;-82
2021/12/05 04:47:53;;;;;;;5.78;2.45;;;;;;;;;;5036964;28;20025;-84
2021/12/05 04:50:22;;;;;;;2.65;2.28;;;;;;;;;;5018797;28;20052;-84
2021/12/05 04:52:54;;;;;;;4.70;1.92;;;;;;;;;;5018940;28;20021;-82
2021/12/05 04:55:27;;;;;;;4.88;2.08;;;;;;;;;;5017513;28;20045;-83
2021/12/05 04:58:06;;;;;;;;;;;;;;;;;;;;;
2021/12/05 05:00:42;;;;;;;3.65;1.92;;;;;;;;;;5035831;28;20021;-84
2021/12/05 05:03:08;;;;;;;6.93;2.50;;;;;;;;;;5035700;28;20096;-83
2021/12/05 05:05:52;;;;;;;3.88;2.10;;;;;;;;;;5036164;28;20032;-83
2021/12/05 05:08:29;;;;;;;4.40;2.40;;;;;;;;;;5017772;28;20490;-82
2021/12/05 05:11:00;;;;;;;4.97;1.88;;;;;;;;;;5017656;28;20509;-82
2021/12/05 05:13:26;;;;;;;4.53;2.30;;;;;;;;;;5017687;28;20040;-84
2021/12/05 05:16:16;;;;;;;3.40;1.92;;;;;;;;;;5018261;28;20033;-83
2021/12/05 05:18:54;;;;;;;7.43;2.58;;;;;;;;;;5036244;28;20100;-83
2021/12/05 05:41:35;;;;;;;4.40;2.17;;;;;;;;;;5035934;28;20087;-81
2021/12/05 05:46:19;;;;;;;3.97;1.80;;;;;;;;;;5035486;28;20076;-83
2021/12/05 05:49:10;;;;;;;5.45;1.98;;;;;;;;;;5035044;28;20482;-82
2021/12/05 05:51:35;;;;;;;2.78;1.80;;;;;;;;;;5035258;28;20104;-83
2021/12/05 05:54:00;;;;;;;4.90;1.98;;;;;;;;;;5035787;28;20048;-84
2021/12/05 05:56:28;;;;;;;3.90;2.00;;;;;;;;;;5035667;28;20029;-82
2021/12/05 05:59:01;;;;;;;3.90;2.20;;;;;;;;;;5017671;28;20028;-83
2021/12/05 06:04:00;;;;;;;6.57;2.13;;;;;;;;;;5036564;28;20033;-83
2021/12/05 06:06:27;;;;;;;7.72;2.45;;;;;;;;;;5018286;28;20026;-82
2021/12/05 06:08:52;;;;;;;6.00;2.10;;;;;;;;;;5017879;28;20098;-83
2021/12/05 06:11:18;;;;;;;3.40;1.77;;;;;;;;;;5017847;28;20025;-82
2021/12/05 06:13:44;;;;;;;4.55;2.10;;;;;;;;;;5017826;28;20025;-82
2021/12/05 06:16:11;;;;;;;4.75;2.28;;;;;;;;;;5018160;28;20064;-83
2021/12/05 06:18:38;;;;;;;5.35;2.20;;;;;;;;;;5035596;28;20589;-82
2021/12/05 06:21:07;;;;;;;4.00;1.90;;;;;;;;;;5035294;28;20017;-83
2021/12/05 06:26:28;;;;;;;3.13;1.85;;;;;;;;;;5025022;28;20478;-83
2021/12/05 06:29:22;;;;;;;4.60;1.80;;;;;;;;;;5035383;28;20486;-83
2021/12/05 06:38:28;;;;;;;4.60;2.03;;;;;;;;;;5034776;28;20067;-82
2021/12/05 06:48:13;;;;;;;4.40;1.83;;;;;;;;;;5034196;28;20402;-84
2021/12/05 06:50:41;;;;;;;5.50;1.85;;;;;;;;;;5016845;28;20029;-82
2021/12/05 06:53:26;;;;;;;4.38;1.80;;;;;;;;;;5017095;28;20068;-82
2021/12/05 06:56:02;;;;;;;5.05;1.90;;;;;;;;;;5035457;28;20060;-83
2021/12/05 06:58:27;;;;;;;4.03;1.85;;;;;;;;;;5017703;28;20494;-82
2021/12/05 07:00:56;;;;;;;5.60;1.77;;;;;;;;;;5037566;28;20037;-82
2021/12/05 07:03:33;;;;;;;3.10;1.58;;;;;;;;;;5022458;28;20029;-83
2021/12/05 07:06:11;;;;;;;4.60;1.80;;;;;;;;;;5020627;28;20156;-82
2021/12/05 07:08:40;;;;;;;4.85;1.80;;;;;;;;;;5038672;28;20052;-83
2021/12/05 07:11:15;;;;;;;2.33;1.60;;;;;;;;;;5039954;28;20052;-82
2021/12/05 07:21:57;;;;;;;7.00;1.63;;;;;;;;;;5040268;28;20479;-83
2021/12/05 07:24:38;;;;;;;6.22;1.88;;;;;;;;;;5021342;28;20032;-83
2021/12/05 07:40:20;;;;;;;3.80;1.75;;;;;;;;;;5021673;28;20037;-83
2021/12/05 07:44:08;;;;;;;5.20;1.80;;;;;;;;;;5038591;28;20052;-83
2021/12/05 07:46:39;;;;;;;6.20;1.80;;;;;;;;;;5021064;28;20029;-83
2021/12/05 07:49:10;;;;;;;5.05;2.00;;;;;;;;;;5021999;28;20060;-83
2021/12/05 07:51:48;;;;;;;3.40;1.73;;;;;;;;;;5021720;28;20478;-83
2021/12/05 07:58:02;;;;;;;2.17;1.27;;;;;;;;;;4983729;28;20035;-82
2021/12/05 08:17:50;;;;;;;5.63;1.92;;;;;;;;;;5038390;28;20060;-83
2021/12/05 08:20:41;;;;;;;3.10;1.40;;;;;;;;;;5021322;28;20025;-83
2021/12/05 08:23:12;;;;;;;6.22;1.60;;;;;;;;;;5020806;28;20036;-82
2021/12/05 08:25:44;;;;;;;4.38;1.42;;;;;;;;;;5023567;28;20418;-83
2021/12/05 08:29:06;;;;;;;5.32;1.58;;;;;;;;;;5021439;28;20120;-83
2021/12/05 08:31:54;;;;;;;3.83;1.63;;;;;;;;;;5038172;28;20502;-82
2021/12/05 08:34:39;;;;;;;3.35;1.65;;;;;;;;;;5021218;28;20022;-82
2021/12/05 08:41:28;;;;;;;4.05;1.60;;;;;;;;;;5037085;28;20087;-83
2021/12/05 10:13:00;;;;;;;5.85;1.67;;;;;;;;;;5025285;28;20071;-83
2021/12/05 10:16:26;;;;;;;2.47;1.40;;;;;;;;;;5034967;28;20026;-84
2021/12/05 10:38:45;;;;;;;6.40;1.80;;;;;;;;;;4940070;29;20028;-83
2021/12/05 10:43:56;;;;;;;6.60;1.73;;;;;;;;;;5039807;28;20021;-83
2021/12/05 10:46:29;;;;;;;3.97;1.50;;;;;;;;;;5038893;28;20084;-83
2021/12/05 10:56:18;;;;;;;;;;;;;;;;;;;;;
2021/12/05 10:59:21;;;;;;;7.70;1.83;;;;;;;;;;5038815;28;20044;-83
2021/12/05 11:02:27;;;;;;;;;;;;;;;;;;;;;
2021/12/05 11:05:13;;;;;;;;;;;;;;;;;;;;;
2021/12/05 11:11:32;;;;;;;5.78;1.55;;;;;;;;;;5029864;22;20429;-85
2021/12/05 11:15:14;;;;;;;;;;;;;;;;;;;;;
2021/12/05 11:18:14;;;;;;;3.88;1.00;;;;;;;;;;4958163;29;20039;-83
2021/12/05 11:20:47;;;;;;;4.50;1.50;;;;;;;;;;4941776;29;20488;-83
2021/12/05 11:23:21;;;;;;;5.50;1.70;;;;;;;;;;4957424;29;20122;-84
2021/12/05 11:30:02;;;;;;;;;;;;;;;;;;;;;
2021/12/05 11:36:20;;;;;;;4.95;1.42;;;;;;;;;;4937593;29;20036;-83
2021/12/05 11:40:02;;;;;;;6.53;1.52;;;;;;;;;;4938161;29;20452;-82
2021/12/05 11:53:09;;;;;;;1.73;1.15;;;;;;;;;;4947234;29;20396;-84
2021/12/05 11:56:01;;;;;;;1.98;1.02;;;;;;;;;;4955259;28;20033;-83
2021/12/05 11:59:18;;;;;;;5.53;1.48;;;;;;;;;;4987963;28;20407;-83
2021/12/05 12:12:06;;;;;;;4.95;1.90;;;;;;;;;;4978257;28;20091;-85
2021/12/05 13:20:09;;;;;;;;;;;;;;;;;;;;;
2021/12/05 13:57:48;;;;;;;;;;;;;;;;;;;;;
2021/12/05 14:00:51;;;;;;;5.28;1.75;;;;;;;;;;5047542;28;20087;-81
2021/12/05 14:03:44;;;;;;;4.72;1.40;;;;;;;;;;5015567;28;20028;-80
2021/12/05 14:06:40;;;;;;;3.28;1.40;;;;;;;;;;5023388;28;20096;-83
2021/12/05 14:09:20;;;;;;;8.10;1.58;;;;;;;;;;5023346;28;20103;-80
2021/12/05 14:15:24;;;;;;;2.63;1.25;;;;;;;;;;5030302;28;20437;-81
2021/12/05 14:18:47;;;;;;;5.53;1.52;;;;;;;;;;5001546;28;20491;-85
2021/12/05 14:21:26;;;;;;;3.03;1.30;;;;;;;;;;5030194;28;20037;-82
2021/12/05 14:24:06;;;;;;;6.65;1.70;;;;;;;;;;5017036;28;20357;-84
2021/12/05 14:26:55;;;;;;;2.95;1.50;;;;;;;;;;5017841;28;20493;-83
2021/12/05 14:30:09;;;;;;;;;;;;;;;;;;;;;
2021/12/05 14:33:03;;;;;;;3.05;1.30;;;;;;;;;;5034258;28;20024;-83
2021/12/05 14:35:56;;;;;;;;;;;;;;;;;;;;;
2021/12/05 14:42:37;;;;;;;;;;;;;;;;;;;;;
2021/12/05 14:58:35;;;;;;;;;;;;;;;;;;;;;
2021/12/05 15:02:18;;;;;;;;;;;;;;;;;;;;;
2021/12/05 15:05:14;;;;;;;6.70;1.90;;;;;;;;;;4934355;29;20035;-84
2021/12/05 15:11:08;;;;;;;6.70;1.60;;;;;;;;;;5007812;28;20034;-83
2021/12/05 15:17:49;;;;;;;6.40;1.83;;;;;;;;;;5001132;28;20410;-83
2021/12/05 15:20:24;;;;;;;7.93;2.00;;;;;;;;;;5008848;28;20275;-82
2021/12/05 15:23:14;;;;;;;6.07;2.00;;;;;;;;;;5017917;28;20497;-84
2021/12/05 15:26:18;;;;;;;;;;;;;;;;;;;;;
2021/12/05 15:28:43;;;;;;;4.40;1.90;;;;;;;;;;5013785;28;20042;-82
2021/12/05 15:31:21;;;;;;;6.20;1.80;;;;;;;;;;5017160;28;20033;-84
2021/12/05 15:34:05;;;;;;;;;;;;;;;;;;;;;
2021/12/05 15:36:57;;;;;;;;;;;;;;;;;;;;;
2021/12/05 15:39:39;;;;;;;8.25;2.35;;;;;;;;;;5018724;28;20030;-84
2021/12/05 15:42:18;;;;;;;11.38;3.42;;;;;;;;;;5017726;28;20125;-84
2021/12/05 15:44:53;;;;;;;6.85;2.47;;;;;;;;;;5018384;28;20072;-84
2021/12/05 15:47:38;;;;;;;7.03;2.40;;;;;;;;;;5017782;28;20045;-82
2021/12/05 15:50:31;;;;;;;6.10;2.30;;;;;;;;;;5017541;28;20029;-83
2021/12/05 15:53:15;;;;;;;;;;;;;;;;;;;;;
2021/12/05 15:56:42;;;;;;;9.15;2.83;;;;;;;;;;5017802;28;20033;-84
2021/12/05 15:59:36;;;;;;;8.00;2.55;;;;;;;;;;5016473;28;20112;-83
2021/12/05 16:02:07;;;;;;;7.68;2.58;;;;;;;;;;5018173;28;20434;-84
2021/12/05 16:04:56;;;;;;;;;;;;;;;;;;;;;
2021/12/05 16:07:39;;;;;;;8.07;2.60;;;;;;;;;;5017836;28;20037;-83
2021/12/05 16:14:23;;;;;;;;;;;;;;;;;;;;;
2021/12/05 16:16:54;;;;;;;7.18;3.42;;;;;;;;;;5017312;28;20102;-84
2021/12/05 16:19:41;;;;;;;;;;;;;;;;;;;;;
2021/12/05 16:22:31;;;;;;;11.52;3.72;;;;;;;;;;5017343;28;20030;-83
2021/12/05 16:25:49;;;;;;;6.38;3.40;;;;;;;;;;5017632;28;20021;-83
2021/12/05 16:28:46;;;;;;;10.57;4.03;;;;;;;;;;5017596;28;20092;-86
2021/12/05 16:31:36;;;;;;;;;;;;;;;;;;;;;
2021/12/05 16:34:55;;;;;;;8.70;3.85;;;;;;;;;;5016846;28;20055;-84
2021/12/05 16:38:28;;;;;;;;;;;;;;;;;;;;;
2021/12/05 16:41:14;;;;;;;9.68;4.40;;;;;;;;;;5009040;28;20030;-82
2021/12/05 16:44:24;;;;;;;;;;;;;;;;;;;;;
2021/12/05 16:47:39;;;;;;;15.38;5.50;;;;;;;;;;5017650;28;20086;-84
2021/12/05 16:53:13;;;;;;;14.05;6.15;;;;;;;;;;5085184;23;20085;-82
2021/12/05 16:56:10;;;;;;;15.15;6.53;;;;;;;;;;5018033;28;20045;-84
2021/12/05 16:58:44;;;;;;;15.15;7.53;;;;;;;;;;5018675;28;20083;-82
2021/12/05 17:01:22;;;;;;;23.27;10.75;;;;;;;;;;5020520;28;20449;-83
2021/12/05 17:04:25;;;;;;;21.25;10.15;;;;;;;;;;5018760;28;20017;-84
2021/12/05 17:06:56;;;;;;;34.78;13.98;;;;;;;;;;5017411;28;20064;-85
2021/12/05 17:16:14;;;;;;;27.98;11.90;;;;;;;;;;4957726;29;20501;-84
2021/12/05 17:19:08;;;;;;;;;;;;;;;;;;;;;
2021/12/05 17:22:00;;;;;;;19.25;9.82;;;;;;;;;;5036573;28;20336;-83
2021/12/05 17:24:44;;;;;;;19.05;9.15;;;;;;;;;;5008574;28;20025;-84
2021/12/05 17:27:26;;;;;;;;;;;;;;;;;;;;;
2021/12/05 17:30:52;;;;;;;23.70;11.60;;;;;;;;;;5036598;28;19909;-83
2021/12/05 17:40:30;;;;;;;28.73;11.45;;;;;;;;;;5026197;28;20029;-83
2021/12/05 17:43:10;;;;;;;;;;;;;;;;;;;;;
2021/12/05 17:52:43;;;;;;;14.27;7.10;;;;;;;;;;5028727;28;20029;-85
2021/12/05 17:55:40;;;;;;;;;;;;;;;;;;;;;
2021/12/05 17:58:39;;;;;;;17.55;8.18;;;;;;;;;;5036397;28;20421;-83
2021/12/05 18:04:45;;;;;;;;;;;;;;;;;;;;;
2021/12/05 18:07:27;;;;;;;;;;;;;;;;;;;;;
2021/12/05 18:10:19;;;;;;;;;;;;;;;;;;;;;
2021/12/05 18:17:13;;;;;;;15.00;7.55;;;;;;;;;;5013829;28;20364;-84
2021/12/05 18:20:00;;;;;;;11.98;6.40;;;;;;;;;;5018448;28;20026;-83
2021/12/05 18:22:31;;;;;;;14.48;7.57;;;;;;;;;;5017926;28;20063;-84
2021/12/05 18:25:12;;;;;;;18.38;8.10;;;;;;;;;;5023137;28;20030;-84
2021/12/05 18:31:33;;;;;;;;;;;;;;;;;;;;;
2021/12/05 18:34:31;;;;;;;22.02;8.75;;;;;;;;;;5034120;28;20125;-83
2021/12/05 18:37:44;;;;;;;23.00;7.88;;;;;;;;;;5010865;28;20033;-84
2021/12/05 18:45:42;;;;;;;25.92;9.02;;;;;;;;;;3341720;26;20053;-83
2021/12/05 18:48:48;;;;;;;;;;;;;;;;;;;;;
2021/12/05 18:51:50;;;;;;;;;;;;;;;;;;;;;
2021/12/05 18:54:43;;;;;;;25.33;9.40;;;;;;;;;;5030522;28;20108;-83
2021/12/05 18:57:19;;;;;;;17.60;8.27;;;;;;;;;;5022551;28;20033;-84
2021/12/05 19:16:29;;;;;;;17.93;8.70;;;;;;;;;;4963173;28;20052;-85
2021/12/05 19:19:03;;;;;;;20.88;7.82;;;;;;;;;;5022183;28;20120;-84
2021/12/05 19:21:53;;;;;;;;;;;;;;;;;;;;;
2021/12/05 19:25:03;;;;;;;18.25;7.78;;;;;;;;;;5042309;28;20090;-84
2021/12/05 19:27:44;;;;;;;22.45;8.63;;;;;;;;;;5022809;28;20067;-86
2021/12/05 19:30:31;;;;;;;19.08;8.48;;;;;;;;;;5022070;28;20030;-84
2021/12/05 19:33:24;;;;;;;16.40;7.70;;;;;;;;;;5023101;28;20058;-84
2021/12/05 19:36:14;;;;;;;16.98;8.35;;;;;;;;;;5023604;28;20438;-83
2021/12/05 19:39:09;;;;;;;20.38;8.43;;;;;;;;;;5022836;28;20022;-84
2021/12/05 19:45:00;;;;;;;17.98;7.75;;;;;;;;;;5040427;28;20219;-84
2021/12/05 19:51:06;;;;;;;;;;;;;;;;;;;;;
2021/12/05 19:54:21;;;;;;;18.25;8.88;;;;;;;;;;5039416;28;20112;-85
2021/12/05 19:56:57;;;;;;;23.90;10.45;;;;;;;;;;5022487;28;20030;-83
2021/12/05 19:59:50;;;;;;;;;;;;;;;;;;;;;
2021/12/05 20:02:24;;;;;;;21.92;11.48;;;;;;;;;;5040050;28;20108;-85
2021/12/05 20:05:55;;;;;;;19.33;10.93;;;;;;;;;;5022902;28;20467;-85
2021/12/05 20:09:48;;;;;;;;;;;;;;;;;;;;;
2021/12/05 20:15:45;;;;;;;14.77;8.20;;;;;;;;;;4972101;28;20040;-83
2021/12/05 20:18:20;;;;;;;;;;;;;;;;;;5021325;28;20041;-85
2021/12/05 20:21:34;;;;;;;17.95;8.18;;;;;;;;;;5019915;28;20014;-84
2021/12/05 20:24:36;;;;;;;19.10;8.32;;;;;;;;;;5021723;28;20025;-86
2021/12/05 20:27:47;;;;;;;23.15;9.93;;;;;;;;;;5018460;28;20045;-84
2021/12/05 20:30:56;;;;;;;21.08;9.77;;;;;;;;;;5020694;28;20044;-84
2021/12/05 20:33:40;;;;;;;22.85;9.68;;;;;;;;;;5020372;28;20093;-84
2021/12/05 20:36:32;;;;;;;22.38;9.48;;;;;;;;;;5019523;28;20029;-84
2021/12/05 20:39:25;;;;;;;21.92;9.23;;;;;;;;;;5036451;28;20052;-83
2021/12/05 20:49:00;;;;;;;17.13;7.38;;;;;;;;;;5036925;28;20037;-83
2021/12/05 20:55:10;;;;;;;12.80;6.07;;;;;;;;;;5025136;28;20375;-84
2021/12/05 20:58:16;;;;;;;13.93;6.13;;;;;;;;;;5020784;28;20123;-83
2021/12/05 21:04:01;;;;;;;15.35;6.55;;;;;;;;;;5021475;28;20034;-83
2021/12/05 21:10:03;;;;;;;13.30;5.82;;;;;;;;;;4994455;28;20034;-83
2021/12/05 21:13:20;;;;;;;;;;;;;;;;;;;;;
2021/12/05 21:16:01;;;;;;;17.35;6.80;;;;;;;;;;5036492;28;20028;-83
2021/12/05 21:18:56;;;;;;;21.92;9.32;;;;;;;;;;5036461;28;20068;-83
2021/12/05 23:51:44;;;;;;;25.15;9.65;;;;;;;;;;2983203;22;20477;-82
2021/12/05 23:57:33;;;;;;;19.33;9.35;;;;;;;;;;4999321;28;20088;-80
